createdAt,value
2018-10-01T00:01:06.233Z,8.93
2018-10-01T00:03:33.866Z,6.27
2018-10-01T00:06:01.476Z,11.70
2018-10-01T00:08:29.027Z,7.27
2018-10-01T00:10:56.539Z,10.63
2018-10-01T00:13:24.105Z,6.87
2018-10-01T00:15:51.640Z,9.93
2018-10-01T00:18:19.201Z,6.67
2018-10-01T00:21:02.480Z,6.40
2018-10-01T00:23:30.000Z,6.00
2018-10-01T00:25:57.596Z,9.30
2018-10-01T00:28:25.169Z,7.40
2018-10-01T00:30:52.739Z,6.23
2018-10-01T00:33:20.287Z,7.57
2018-10-01T00:35:47.832Z,5.50
2018-10-01T00:38:15.401Z,9.53
2018-10-01T00:40:42.964Z,5.57
2018-10-01T00:43:10.499Z,5.47
2018-10-01T00:45:38.041Z,6.47
2018-10-01T00:48:05.603Z,8.27
2018-10-01T00:50:33.175Z,8.57
2018-10-01T00:53:00.732Z,5.80
2018-10-01T00:55:28.302Z,8.70
2018-10-01T00:57:55.825Z,7.63
2018-10-01T01:00:23.378Z,7.90
2018-10-01T01:02:50.951Z,4.90
2018-10-01T01:05:18.454Z,7.00
2018-10-01T01:07:46.034Z,11.30
2018-10-01T01:10:13.590Z,7.93
2018-10-01T01:12:41.154Z,7.40
2018-10-01T01:15:08.707Z,10.17
2018-10-01T01:17:36.221Z,6.20
2018-10-01T01:20:03.778Z,9.40
2018-10-01T01:22:31.349Z,7.63
2018-10-01T01:24:58.867Z,9.57
2018-10-01T01:27:26.444Z,7.53
2018-10-01T01:29:54.007Z,12.55
2018-10-01T01:32:21.846Z,7.67
2018-10-01T01:34:49.424Z,5.97
2018-10-01T01:37:17.009Z,5.05
2018-10-01T01:39:44.583Z,6.23
2018-10-01T01:42:12.142Z,6.13
2018-10-01T01:44:39.668Z,6.20
2018-10-01T01:47:07.244Z,5.60
2018-10-01T01:49:34.752Z,7.80
2018-10-01T01:52:02.309Z,5.37
2018-10-01T01:54:29.865Z,11.43
2018-10-01T01:56:57.438Z,7.03
2018-10-01T01:59:25.021Z,8.20
2018-10-01T02:01:52.559Z,8.93
2018-10-01T02:04:20.105Z,6.87
2018-10-01T02:06:47.648Z,5.67
2018-10-01T02:09:15.206Z,6.87
2018-10-01T02:11:42.820Z,10.77
2018-10-01T02:14:10.397Z,10.40
2018-10-01T02:16:37.920Z,8.60
2018-10-01T02:19:05.712Z,5.77
2018-10-01T02:21:33.218Z,9.47
2018-10-01T02:24:00.766Z,6.60
2018-10-01T02:26:28.318Z,8.57
2018-10-01T02:28:55.864Z,8.67
2018-10-01T02:31:23.611Z,6.37
2018-10-01T02:33:51.170Z,8.93
2018-10-01T02:36:18.722Z,10.57
2018-10-01T02:38:46.286Z,8.53
2018-10-01T02:41:14.064Z,9.60
2018-10-01T02:43:41.625Z,5.17
2018-10-01T02:46:09.140Z,7.60
2018-10-01T02:48:36.721Z,13.93
2018-10-01T02:51:04.259Z,6.90
2018-10-01T02:53:50.618Z,12.50
2018-10-01T02:56:18.135Z,8.70
2018-10-01T02:58:45.725Z,12.63
2018-10-01T03:01:13.270Z,11.27
2018-10-01T03:03:40.833Z,9.23
2018-10-01T03:06:08.349Z,7.87
2018-10-01T03:08:36.012Z,7.57
2018-10-01T03:11:03.537Z,9.93
2018-10-01T03:13:31.084Z,8.85
2018-10-01T03:15:58.790Z,9.37
2018-10-01T03:18:26.408Z,12.00
2018-10-01T03:20:53.988Z,10.77
2018-10-01T03:23:21.545Z,14.43
2018-10-01T03:25:49.223Z,9.27
2018-10-01T03:28:16.747Z,6.90
2018-10-01T03:30:44.331Z,8.97
2018-10-01T03:33:11.853Z,12.23
2018-10-01T03:35:39.369Z,9.40
2018-10-01T03:38:06.927Z,12.17
2018-10-01T03:40:34.462Z,9.20
2018-10-01T03:43:02.069Z,10.80
2018-10-01T03:45:29.735Z,10.20
2018-10-01T03:47:57.322Z,10.73
2018-10-01T03:50:24.860Z,10.27
2018-10-01T03:52:52.500Z,8.47
2018-10-01T03:55:20.070Z,13.10
2018-10-01T03:57:47.642Z,8.47
2018-10-01T04:00:15.212Z,10.97
2018-10-01T04:02:42.779Z,6.47
2018-10-01T04:05:10.388Z,7.10
2018-10-01T04:07:37.934Z,9.67
2018-10-01T04:10:05.492Z,7.83
2018-10-01T04:12:33.016Z,10.57
2018-10-01T04:15:00.579Z,8.10
2018-10-01T04:17:28.146Z,6.70
2018-10-01T04:19:55.671Z,5.50
2018-10-01T04:22:23.231Z,10.17
2018-10-01T04:24:50.818Z,14.40
2018-10-01T04:27:18.361Z,8.13
2018-10-01T04:29:45.946Z,7.93
2018-10-01T04:32:13.701Z,8.57
2018-10-01T04:34:41.228Z,5.70
2018-10-01T04:37:08.759Z,7.63
2018-10-01T04:39:36.305Z,13.67
2018-10-01T04:42:03.895Z,5.97
2018-10-01T04:44:31.477Z,7.15
2018-10-01T04:46:59.005Z,9.70
2018-10-01T04:49:26.570Z,9.23
2018-10-01T04:51:54.165Z,8.97
2018-10-01T04:54:21.732Z,10.37
2018-10-01T04:56:49.466Z,9.13
2018-10-01T04:59:16.982Z,10.33
2018-10-01T05:01:44.697Z,8.80
2018-10-01T05:04:12.264Z,8.90
2018-10-01T05:06:39.838Z,11.47
2018-10-01T05:09:07.436Z,7.20
2018-10-01T05:11:34.994Z,4.43
2018-10-01T05:14:02.663Z,8.07
2018-10-01T05:16:30.178Z,6.30
2018-10-01T05:18:57.725Z,4.90
2018-10-01T05:21:25.290Z,6.87
2018-10-01T05:23:52.818Z,6.97
2018-10-01T05:26:20.414Z,7.40
2018-10-01T05:28:47.989Z,10.00
2018-10-01T05:31:15.499Z,4.80
2018-10-01T05:33:43.194Z,5.23
2018-10-01T05:36:10.756Z,7.13
2018-10-01T05:38:38.305Z,10.67
2018-10-01T05:41:05.846Z,8.47
2018-10-01T05:43:33.413Z,3.37
2018-10-01T05:46:00.964Z,8.87
2018-10-01T05:48:28.481Z,8.93
2018-10-01T05:50:56.079Z,6.67
2018-10-01T05:53:23.620Z,6.03
2018-10-01T05:55:51.189Z,9.07
2018-10-01T05:58:18.781Z,6.20
2018-10-01T06:00:46.340Z,6.50
2018-10-01T06:03:13.901Z,5.00
2018-10-01T06:05:41.433Z,6.00
2018-10-01T06:08:09.042Z,5.23
2018-10-01T06:10:36.576Z,8.47
2018-10-01T06:13:04.167Z,8.23
2018-10-01T06:15:31.692Z,7.33
2018-10-01T06:18:00.161Z,9.77
2018-10-01T06:20:27.770Z,5.70
2018-10-01T06:22:55.434Z,6.87
2018-10-01T06:25:23.025Z,6.33
2018-10-01T06:27:50.559Z,5.77
2018-10-01T06:30:18.220Z,8.67
2018-10-01T06:32:45.764Z,5.30
2018-10-01T06:35:13.347Z,7.83
2018-10-01T06:37:40.904Z,5.50
2018-10-01T06:40:08.461Z,5.35
2018-10-01T06:42:36.029Z,4.83
2018-10-01T06:45:03.539Z,6.20
2018-10-01T06:47:31.120Z,6.80
2018-10-01T06:49:58.767Z,5.40
2018-10-01T06:52:26.551Z,6.87
2018-10-01T06:54:54.095Z,9.40
2018-10-01T06:57:21.617Z,5.07
2018-10-01T06:59:49.210Z,6.53
2018-10-01T07:02:17.049Z,5.83
2018-10-01T07:04:44.906Z,10.73
2018-10-01T07:07:14.361Z,10.67
2018-10-01T07:09:42.661Z,8.90
2018-10-01T07:12:10.661Z,6.93
2018-10-01T07:14:39.152Z,3.08
2018-10-01T07:17:07.518Z,10.67
2018-10-01T07:19:35.477Z,6.30
2018-10-01T07:22:03.561Z,5.53
2018-10-01T07:24:31.257Z,5.53
2018-10-01T07:26:59.170Z,5.57
2018-10-01T07:29:27.110Z,8.90
2018-10-01T07:31:55.201Z,7.60
2018-10-01T07:34:22.895Z,8.07
2018-10-01T07:36:50.810Z,7.90
2018-10-01T07:39:19.398Z,5.40
2018-10-01T07:41:47.130Z,3.77
2018-10-01T07:44:14.722Z,6.17
2018-10-01T07:46:42.489Z,4.97
2018-10-01T07:49:10.138Z,3.30
2018-10-01T07:51:37.823Z,5.63
2018-10-01T07:54:05.566Z,6.80
2018-10-01T07:56:33.089Z,4.17
2018-10-01T07:59:00.627Z,6.23
2018-10-01T08:01:28.183Z,4.83
2018-10-01T08:03:55.861Z,4.77
2018-10-01T08:06:23.541Z,3.03
2018-10-01T08:08:51.122Z,2.60
2018-10-01T08:11:18.848Z,2.63
2018-10-01T08:13:46.596Z,3.63
2018-10-01T08:16:14.264Z,5.63
2018-10-01T08:18:41.822Z,5.07
2018-10-01T08:21:09.599Z,2.90
2018-10-01T08:23:37.265Z,4.80
2018-10-01T08:26:05.110Z,1.70
2018-10-01T08:28:33.789Z,7.75
2018-10-01T08:31:01.588Z,2.00
2018-10-01T08:33:29.272Z,4.72
2018-10-01T08:35:56.908Z,5.23
2018-10-01T08:38:24.590Z,3.63
2018-10-01T08:40:52.221Z,2.80
2018-10-01T08:43:19.916Z,3.87
2018-10-01T08:45:47.460Z,5.63
2018-10-01T08:48:15.310Z,4.47
2018-10-01T08:50:42.993Z,4.47
2018-10-01T08:53:10.888Z,4.43
2018-10-01T08:55:38.641Z,6.32
2018-10-01T08:58:06.358Z,3.60
2018-10-01T09:00:34.113Z,3.90
2018-10-01T09:03:01.710Z,1.80
2018-10-01T09:05:29.270Z,5.20
2018-10-01T09:07:56.926Z,2.97
2018-10-01T09:10:24.630Z,4.17
2018-10-01T09:12:53.105Z,4.03
2018-10-01T09:15:20.741Z,3.60
2018-10-01T09:17:48.350Z,3.37
2018-10-01T09:20:16.152Z,3.23
2018-10-01T09:22:43.759Z,3.37
2018-10-01T09:25:11.550Z,4.37
2018-10-01T09:27:39.184Z,4.23
2018-10-01T09:30:07.108Z,5.87
2018-10-01T09:32:34.785Z,3.08
2018-10-01T09:35:02.518Z,3.50
2018-10-01T09:37:30.295Z,6.20
2018-10-01T09:39:57.972Z,5.77
2018-10-01T09:42:25.622Z,4.53
2018-10-01T09:44:53.373Z,4.50
2018-10-01T09:47:20.986Z,2.27
2018-10-01T09:49:48.681Z,2.37
2018-10-01T09:52:16.353Z,5.90
2018-10-01T09:54:43.910Z,3.30
2018-10-01T09:57:11.489Z,3.20
2018-10-01T09:59:39.013Z,4.57
2018-10-01T10:02:06.679Z,2.53
2018-10-01T10:04:34.259Z,2.73
2018-10-01T10:07:01.933Z,4.13
2018-10-01T10:09:29.484Z,2.27
2018-10-01T10:11:57.043Z,3.47
2018-10-01T10:14:24.770Z,3.40
2018-10-01T10:16:52.414Z,4.67
2018-10-01T10:19:20.069Z,1.80
2018-10-01T10:21:47.638Z,4.20
2018-10-01T10:24:15.353Z,2.93
2018-10-01T10:26:42.898Z,2.63
2018-10-01T10:29:10.464Z,1.43
2018-10-01T10:31:38.024Z,2.80
2018-10-01T10:34:05.715Z,1.30
2018-10-01T10:36:33.785Z,2.67
2018-10-01T10:39:01.807Z,2.90
2018-10-01T10:41:29.437Z,2.63
2018-10-01T10:43:57.066Z,1.20
2018-10-01T10:46:25.378Z,1.27
2018-10-01T10:48:53.217Z,1.13
2018-10-01T10:51:20.887Z,1.53
2018-10-01T10:53:48.667Z,1.53
2018-10-01T10:56:16.751Z,2.60
2018-10-01T10:58:44.379Z,1.30
2018-10-01T11:01:11.895Z,2.20
2018-10-01T11:03:39.452Z,2.73
2018-10-01T11:06:07.016Z,1.47
2018-10-01T11:08:34.588Z,1.73
2018-10-01T11:11:03.082Z,1.20
2018-10-01T11:13:31.345Z,2.40
2018-10-01T11:16:00.632Z,1.10
2018-10-01T11:18:28.725Z,1.50
2018-10-01T11:20:56.912Z,3.90
2018-10-01T11:23:25.067Z,1.97
2018-10-01T11:25:52.883Z,1.63
2018-10-01T11:28:20.585Z,3.57
2018-10-01T11:30:48.087Z,6.20
2018-10-01T11:33:15.711Z,3.43
2018-10-01T11:35:43.267Z,1.43
2018-10-01T11:38:10.903Z,3.20
2018-10-01T11:40:38.704Z,1.37
2018-10-01T11:43:06.254Z,2.13
2018-10-01T11:45:33.847Z,1.50
2018-10-01T11:48:01.367Z,3.30
2018-10-01T11:50:28.936Z,4.77
2018-10-01T11:52:56.479Z,2.03
2018-10-01T11:55:24.268Z,1.53
2018-10-01T11:57:51.843Z,1.70
2018-10-01T12:00:20.375Z,2.70
2018-10-01T12:02:47.893Z,1.60
2018-10-01T12:05:15.568Z,3.13
2018-10-01T12:07:43.155Z,4.03
2018-10-01T12:10:10.929Z,2.13
2018-10-01T12:12:38.635Z,3.03
2018-10-01T12:15:06.169Z,2.20
2018-10-01T12:17:33.808Z,2.50
2018-10-01T12:20:01.348Z,2.97
2018-10-01T12:22:30.008Z,3.20
2018-10-01T12:24:57.573Z,3.13
2018-10-01T12:27:25.145Z,3.50
2018-10-01T12:29:52.718Z,2.10
2018-10-01T12:32:20.270Z,4.00
2018-10-01T12:34:47.830Z,2.83
2018-10-01T12:37:15.397Z,4.43
2018-10-01T12:39:42.997Z,5.17
2018-10-01T12:42:10.552Z,2.30
2018-10-01T12:44:38.136Z,4.67
2018-10-01T12:47:05.666Z,4.57
2018-10-01T12:49:33.271Z,6.70
2018-10-01T12:52:00.777Z,6.17
2018-10-01T12:54:28.418Z,7.07
2018-10-01T12:56:56.082Z,4.97
2018-10-01T12:59:23.670Z,4.77
2018-10-01T13:01:51.460Z,5.05
2018-10-01T13:04:19.238Z,2.13
2018-10-01T13:06:46.881Z,2.53
2018-10-01T13:09:14.362Z,4.40
2018-10-01T13:11:41.979Z,6.17
2018-10-01T13:14:09.565Z,5.20
2018-10-01T13:16:37.148Z,2.60
2018-10-01T13:19:04.928Z,7.27
2018-10-01T13:21:32.500Z,4.93
2018-10-01T13:24:00.371Z,6.93
2018-10-01T13:26:27.896Z,5.60
2018-10-01T13:28:55.447Z,8.50
2018-10-01T13:31:23.033Z,4.80
2018-10-01T13:33:50.555Z,6.87
2018-10-01T13:36:18.501Z,3.07
2018-10-01T13:38:46.018Z,3.20
2018-10-01T13:41:13.553Z,4.83
2018-10-01T13:43:41.110Z,7.13
2018-10-01T13:46:08.793Z,5.53
2018-10-01T13:48:36.452Z,3.73
2018-10-01T13:51:04.048Z,5.33
2018-10-01T13:53:31.632Z,7.37
2018-10-01T13:55:59.275Z,5.40
2018-10-01T13:58:26.959Z,6.50
2018-10-01T14:00:54.463Z,5.63
2018-10-01T14:03:22.021Z,5.70
2018-10-01T14:05:49.729Z,4.97
2018-10-01T14:08:17.415Z,6.37
2018-10-01T14:10:44.966Z,7.40
2018-10-01T14:13:12.597Z,2.63
2018-10-01T14:15:40.176Z,4.17
2018-10-01T14:18:07.983Z,4.40
2018-10-01T14:20:35.580Z,3.00
2018-10-01T14:23:03.136Z,7.43
2018-10-01T14:25:30.854Z,4.43
2018-10-01T14:27:58.371Z,6.45
2018-10-01T14:30:26.580Z,4.10
2018-10-01T14:32:54.241Z,7.47
2018-10-01T14:35:21.969Z,7.80
2018-10-01T14:37:49.929Z,5.90
2018-10-01T14:40:17.579Z,3.58
2018-10-01T14:42:45.219Z,6.27
2018-10-01T14:45:13.057Z,7.97
2018-10-01T14:47:41.088Z,4.90
2018-10-01T14:50:08.782Z,2.63
2018-10-01T14:52:36.527Z,4.63
2018-10-01T14:55:04.384Z,3.13
2018-10-01T14:57:33.131Z,2.60
2018-10-01T15:00:00.848Z,4.30
2018-10-01T15:02:28.408Z,5.03
2018-10-01T15:04:56.157Z,5.23
2018-10-01T15:07:23.968Z,3.83
2018-10-01T15:09:51.732Z,6.87
2018-10-01T15:12:20.433Z,3.65
2018-10-01T15:14:48.156Z,5.53
2018-10-01T15:17:15.830Z,2.53
2018-10-01T15:19:44.169Z,6.50
2018-10-01T15:22:12.456Z,5.30
2018-10-01T15:24:40.117Z,3.83
2018-10-01T15:27:07.921Z,2.23
2018-10-01T15:29:35.583Z,2.83
2018-10-01T15:32:03.283Z,4.97
2018-10-01T15:34:30.980Z,3.63
2018-10-01T15:36:58.753Z,3.27
2018-10-01T15:39:26.461Z,3.33
2018-10-01T15:41:54.221Z,1.60
2018-10-01T15:44:22.111Z,2.33
2018-10-01T15:46:49.737Z,3.43
2018-10-01T15:49:17.511Z,3.03
2018-10-01T15:51:45.176Z,3.33
2018-10-01T15:54:12.803Z,1.90
2018-10-01T15:56:40.403Z,2.70
2018-10-01T15:59:08.127Z,2.13
2018-10-01T16:01:35.804Z,2.83
2018-10-01T16:04:03.484Z,2.60
2018-10-01T16:06:31.082Z,2.60
2018-10-01T16:08:58.732Z,5.30
2018-10-01T16:11:26.329Z,2.72
2018-10-01T16:13:53.965Z,2.80
2018-10-01T16:16:21.556Z,2.23
2018-10-01T16:18:49.208Z,2.30
2018-10-01T16:21:17.001Z,1.80
2018-10-01T16:23:44.637Z,2.63
2018-10-01T16:26:12.248Z,2.50
2018-10-01T16:28:39.935Z,1.77
2018-10-01T16:31:07.629Z,3.43
2018-10-01T16:33:35.327Z,3.60
2018-10-01T16:36:03.155Z,3.97
2018-10-01T16:38:30.668Z,4.03
2018-10-01T16:40:58.404Z,4.60
2018-10-01T16:43:26.413Z,2.67
2018-10-01T16:45:54.066Z,3.33
2018-10-01T16:48:21.789Z,3.22
2018-10-01T16:50:49.400Z,3.33
2018-10-01T16:53:17.042Z,3.27
2018-10-01T16:55:44.723Z,4.60
2018-10-01T16:58:12.399Z,3.22
2018-10-01T17:00:40.320Z,2.80
2018-10-01T17:03:08.059Z,3.50
2018-10-01T17:05:35.829Z,2.10
2018-10-01T17:08:03.426Z,4.20
2018-10-01T17:10:31.010Z,3.30
2018-10-01T17:12:58.815Z,2.60
2018-10-01T17:15:26.438Z,2.58
2018-10-01T17:17:54.085Z,2.20
2018-10-01T17:20:21.772Z,2.17
2018-10-01T17:22:49.379Z,1.80
2018-10-01T17:25:17.062Z,5.13
2018-10-01T17:27:44.800Z,1.53
2018-10-01T17:30:12.472Z,1.57
2018-10-01T17:32:40.275Z,1.37
2018-10-01T17:35:08.122Z,0.80
2018-10-01T17:37:36.098Z,0.80
2018-10-01T17:40:04.028Z,0.67
2018-10-01T17:42:31.716Z,2.03
2018-10-01T17:44:59.345Z,1.30
2018-10-01T17:47:27.009Z,3.03
2018-10-01T17:49:54.642Z,1.13
2018-10-01T17:52:22.438Z,1.00
2018-10-01T17:54:50.100Z,2.27
2018-10-01T17:57:17.920Z,2.37
2018-10-01T17:59:45.649Z,1.30
2018-10-01T18:02:13.297Z,2.37
2018-10-01T18:04:40.999Z,2.87
2018-10-01T18:07:08.769Z,2.20
2018-10-01T18:09:36.402Z,2.00
2018-10-01T18:12:04.353Z,1.30
2018-10-01T18:14:32.027Z,3.90
2018-10-01T18:16:59.803Z,5.70
2018-10-01T18:19:27.496Z,2.27
2018-10-01T18:21:55.236Z,2.10
2018-10-01T18:24:22.936Z,3.70
2018-10-01T18:26:50.680Z,2.30
2018-10-01T18:29:18.355Z,5.67
2018-10-01T18:31:46.013Z,4.77
2018-10-01T18:34:13.916Z,2.07
2018-10-01T18:36:41.554Z,3.63
2018-10-01T18:39:09.265Z,2.33
2018-10-01T18:41:36.879Z,6.20
2018-10-01T18:44:04.542Z,5.37
2018-10-01T18:46:32.190Z,2.63
2018-10-01T18:48:59.892Z,6.07
2018-10-01T18:51:27.622Z,4.73
2018-10-01T18:53:55.437Z,3.50
2018-10-01T18:56:23.071Z,2.77
2018-10-01T18:58:50.654Z,5.17
2018-10-01T19:01:18.437Z,5.80
2018-10-01T19:03:46.069Z,5.20
2018-10-01T19:06:13.812Z,3.93
2018-10-01T19:08:41.427Z,4.83
2018-10-01T19:11:09.106Z,7.90
2018-10-01T19:13:36.737Z,7.70
2018-10-01T19:16:04.470Z,4.87
2018-10-01T19:18:32.666Z,9.80
2018-10-01T19:21:00.462Z,4.77
2018-10-01T19:23:28.036Z,6.40
2018-10-01T19:25:55.783Z,6.23
2018-10-01T19:28:23.448Z,9.30
2018-10-01T19:30:51.080Z,5.43
2018-10-01T19:33:18.740Z,7.50
2018-10-01T19:35:46.535Z,5.32
2018-10-01T19:38:14.152Z,8.10
2018-10-01T19:40:41.784Z,5.77
2018-10-01T19:43:09.465Z,4.20
2018-10-01T19:45:37.088Z,6.63
2018-10-01T19:48:04.681Z,3.03
2018-10-01T19:50:32.344Z,4.62
2018-10-01T19:53:00.013Z,4.73
2018-10-01T19:55:27.681Z,5.40
2018-10-01T19:57:55.359Z,5.40
2018-10-01T20:00:23.092Z,7.00
2018-10-01T20:02:50.700Z,3.30
2018-10-01T20:05:18.310Z,6.00
2018-10-01T20:07:46.068Z,4.17
2018-10-01T20:10:13.854Z,7.47
2018-10-01T20:12:41.449Z,5.37
2018-10-01T20:15:09.205Z,5.23
2018-10-01T20:17:36.828Z,6.90
2018-10-01T20:20:05.562Z,6.17
2018-10-01T20:22:34.399Z,3.80
2018-10-01T20:25:02.142Z,6.23
2018-10-01T20:27:29.828Z,8.90
2018-10-01T20:29:57.675Z,4.63
2018-10-01T20:32:25.695Z,6.20
2018-10-01T20:34:53.608Z,7.50
2018-10-01T20:37:21.203Z,3.53
2018-10-01T20:39:48.796Z,4.90
2018-10-01T20:42:16.528Z,3.53
2018-10-01T20:44:44.225Z,5.40
2018-10-01T20:47:11.914Z,4.40
2018-10-01T20:49:39.550Z,2.60
2018-10-01T20:52:07.212Z,5.50
2018-10-01T20:54:34.843Z,6.50
2018-10-01T20:57:02.534Z,4.93
2018-10-01T20:59:30.156Z,4.73
2018-10-01T21:01:58.577Z,6.07
2018-10-01T21:04:26.382Z,5.30
2018-10-01T21:06:54.251Z,5.03
2018-10-01T21:09:21.978Z,7.40
2018-10-01T21:11:49.641Z,2.45
2018-10-01T21:14:17.528Z,5.63
2018-10-01T21:16:45.175Z,5.20
2018-10-01T21:19:12.980Z,4.87
2018-10-01T21:21:40.757Z,4.43
2018-10-01T21:24:08.526Z,7.77
2018-10-01T21:26:36.144Z,3.78
2018-10-01T21:29:03.848Z,4.73
2018-10-01T21:31:31.469Z,3.87
2018-10-01T21:33:59.322Z,3.40
2018-10-01T21:36:27.009Z,6.17
2018-10-01T21:38:54.710Z,5.13
2018-10-01T21:41:23.271Z,4.90
2018-10-01T21:43:50.908Z,5.07
2018-10-01T21:46:18.793Z,3.77
2018-10-01T21:48:46.466Z,4.27
2018-10-01T21:51:14.171Z,4.60
2018-10-01T21:53:41.860Z,3.73
2018-10-01T21:56:09.574Z,7.53
2018-10-01T21:58:37.238Z,6.90
2018-10-01T22:01:04.966Z,8.13
2018-10-01T22:03:32.557Z,6.13
2018-10-01T22:06:00.216Z,4.57
2018-10-01T22:08:28.017Z,4.37
2018-10-01T22:10:55.929Z,6.07
2018-10-01T22:13:23.574Z,5.13
2018-10-01T22:15:51.175Z,5.00
2018-10-01T22:18:19.087Z,5.77
2018-10-01T22:20:46.758Z,6.27
2018-10-01T22:23:14.519Z,4.83
2018-10-01T22:25:42.209Z,6.63
2018-10-01T22:28:09.854Z,5.60
2018-10-01T22:30:37.567Z,10.83
2018-10-01T22:33:05.270Z,7.77
2018-10-01T22:35:32.911Z,5.43
2018-10-01T22:38:00.569Z,7.97
2018-10-01T22:40:28.295Z,9.03
2018-10-01T22:42:56.139Z,6.73
2018-10-01T22:45:23.765Z,4.10
2018-10-01T22:47:51.428Z,9.40
2018-10-01T22:50:19.102Z,7.37
2018-10-01T22:52:46.745Z,7.87
2018-10-01T22:57:48.298Z,4.83
2018-10-01T23:00:15.951Z,7.77
2018-10-01T23:02:43.608Z,7.13
2018-10-01T23:05:11.165Z,9.57
2018-10-01T23:07:38.729Z,10.60
2018-10-01T23:10:06.275Z,6.10
2018-10-01T23:12:33.793Z,15.23
2018-10-01T23:15:01.333Z,5.40
2018-10-01T23:17:28.906Z,9.63
2018-10-01T23:19:56.495Z,8.40
2018-10-01T23:22:24.039Z,8.77
2018-10-01T23:24:51.563Z,9.75
2018-10-01T23:27:19.120Z,8.00
2018-10-01T23:29:46.637Z,8.43
2018-10-01T23:32:14.242Z,9.57
2018-10-01T23:34:41.737Z,8.73
2018-10-01T23:37:09.276Z,6.77
2018-10-01T23:39:36.788Z,7.60
2018-10-01T23:42:04.361Z,10.43
2018-10-01T23:44:31.880Z,7.33
2018-10-01T23:46:59.448Z,9.50
2018-10-01T23:49:27.164Z,6.73
2018-10-01T23:51:54.680Z,5.20
2018-10-01T23:54:22.280Z,9.57
2018-10-01T23:56:49.817Z,6.57
2018-10-01T23:59:17.388Z,7.43
